Time;durP1;ratioP1;P1;durP2;ratioP2;P2;SDS_P1;SDS_P2;PMS_P1;PMS_P2;Temp;Humidity;BMP_temperature;BMP_pressure;BME280_temperature;BME280_humidity;BME280_pressure;Samples;Min_cycle;Max_cycle;Signal;HPM_P1;HPM_P2
2022/02/02 00:00:54;;;;;;;43.37;8.00;;;8.40;94.80;;;;;;5019776;28;20022;-85
2022/02/02 00:03:23;;;;;;;39.67;5.73;;;8.40;95.00;;;;;;5017165;28;20068;-82
2022/02/02 00:06:06;;;;;;;46.87;7.00;;;8.40;95.20;;;;;;5034223;28;20036;-84
2022/02/02 00:18:54;;;;;;;46.57;7.93;;;8.50;95.30;;;;;;5035468;28;20489;-91
2022/02/02 00:21:38;;;;;;;46.00;8.77;;;8.50;95.20;;;;;;5019347;28;20021;-82
2022/02/02 00:24:12;;;;;;;;;;;8.50;95.10;;;;;;5020446;28;20029;-83
2022/02/02 00:26:42;;;;;;;44.07;7.20;;;8.50;95.30;;;;;;5035556;28;20016;-80
2022/02/02 00:29:14;;;;;;;48.33;7.40;;;8.40;95.50;;;;;;5036231;28;20029;-88
2022/02/02 00:31:49;;;;;;;45.47;6.87;;;8.30;95.70;;;;;;5034205;28;20033;-82
2022/02/02 00:34:20;;;;;;;45.83;8.17;;;8.40;95.80;;;;;;5037213;28;20107;-84
2022/02/02 00:36:58;;;;;;;34.73;6.87;;;8.30;96.00;;;;;;5021888;28;20036;-85
2022/02/02 00:39:26;;;;;;;48.10;8.67;;;8.40;96.10;;;;;;5039563;28;20370;-86
2022/02/02 00:41:58;;;;;;;44.93;7.90;;;8.40;96.30;;;;;;5037180;28;20017;-81
2022/02/02 00:44:25;;;;;;;47.13;7.17;;;8.50;96.30;;;;;;5037841;28;20412;-85
2022/02/02 00:46:52;;;;;;;51.00;9.47;;;8.40;96.30;;;;;;5037003;28;20021;-80
2022/02/02 00:49:18;;;;;;;46.27;8.23;;;8.50;96.30;;;;;;5054621;28;20384;-87
2022/02/02 00:51:48;;;;;;;41.90;6.97;;;8.40;96.30;;;;;;5020335;28;20108;-85
2022/02/02 00:54:17;;;;;;;44.97;8.03;;;8.40;96.20;;;;;;5037555;28;20029;-81
2022/02/02 00:56:43;;;;;;;41.17;7.93;;;8.40;96.20;;;;;;5036560;28;20021;-85
2022/02/02 00:59:10;;;;;;;41.87;7.87;;;8.50;96.10;;;;;;5020227;28;20024;-85
2022/02/02 01:01:37;;;;;;;41.33;7.10;;;8.50;96.00;;;;;;5036686;28;20107;-87
2022/02/02 01:04:02;;;;;;;44.40;9.03;;;8.60;96.00;;;;;;5036572;28;20063;-86
2022/02/02 01:06:32;;;;;;;47.13;8.23;;;8.60;95.90;;;;;;5036663;28;20063;-84
2022/02/02 01:20:03;;;;;;;37.30;7.78;;;8.60;95.70;;;;;;5054024;28;20032;-83
2022/02/02 01:27:47;;;;;;;46.53;7.23;;;8.60;95.60;;;;;;5053476;28;20033;-84
2022/02/02 01:27:54;;;;;;;44.77;7.77;;;8.60;95.60;;;;;;5054033;28;20044;-84
2022/02/02 01:30:22;;;;;;;42.80;8.67;;;8.60;95.60;;;;;;5019229;28;20028;-79
2022/02/02 01:32:48;;;;;;;48.13;7.70;;;8.50;95.60;;;;;;5036341;28;20036;-81
2022/02/02 01:35:16;;;;;;;41.63;7.97;;;8.50;95.60;;;;;;5018984;28;20049;-82
2022/02/02 01:37:43;;;;;;;55.03;8.80;;;8.50;95.50;;;;;;5036006;28;20064;-84
2022/02/02 01:43:27;;;;;;;45.17;8.50;;;8.50;95.40;;;;;;5011897;28;20038;-81
2022/02/02 01:45:58;;;;;;;52.37;8.47;;;8.40;95.30;;;;;;5034082;28;20059;-82
2022/02/02 01:51:28;;;;;;;45.42;7.35;;;8.40;95.40;;;;;;5053204;28;20040;-88
2022/02/02 01:56:19;;;;;;;40.20;6.80;;;8.30;95.50;;;;;;5053254;28;20033;-83
2022/02/02 01:59:07;;;;;;;41.10;8.47;;;8.30;95.60;;;;;;5052611;28;20538;-83
2022/02/02 02:01:33;;;;;;;49.77;7.67;;;8.30;95.70;;;;;;5033345;28;20021;-82
2022/02/02 02:03:59;;;;;;;44.10;7.33;;;8.40;95.80;;;;;;5032288;28;20108;-84
2022/02/02 02:06:25;;;;;;;48.77;8.33;;;8.30;95.70;;;;;;5032233;28;20033;-85
2022/02/02 02:08:51;;;;;;;39.17;7.67;;;8.30;95.80;;;;;;5032011;28;20145;-80
2022/02/02 02:11:20;;;;;;;39.20;8.23;;;8.30;95.70;;;;;;5032155;28;20037;-80
2022/02/02 02:16:31;;;;;;;48.77;7.47;;;8.30;95.80;;;;;;5032340;28;20048;-82
2022/02/02 02:18:58;;;;;;;48.83;7.00;;;8.30;95.80;;;;;;5032394;28;20037;-86
2022/02/02 02:21:25;;;;;;;61.03;8.93;;;8.20;95.90;;;;;;5015519;28;20397;-83
2022/02/02 02:23:51;;;;;;;57.40;8.90;;;8.20;95.90;;;;;;5033163;28;20034;-81
2022/02/02 02:26:23;;;;;;;48.50;7.60;;;8.20;96.00;;;;;;5015508;28;20036;-82
2022/02/02 02:37:07;;;;;;;49.03;8.80;;;8.10;96.10;;;;;;5035756;28;20033;-80
2022/02/02 02:39:44;;;;;;;45.87;7.57;;;8.10;96.10;;;;;;5019056;28;20466;-81
2022/02/02 02:55:56;;;;;;;41.20;7.30;;;8.20;96.00;;;;;;5035695;28;20037;-83
2022/02/02 03:30:16;;;;;;;38.10;8.37;;;8.10;96.00;;;;;;5041182;28;20043;-78
2022/02/02 03:49:22;;;;;;;36.30;6.93;;;8.10;96.30;;;;;;5020395;28;20141;-81
2022/02/02 03:52:47;;;;;;;40.30;7.80;;;8.10;96.00;;;;;;5022019;28;20069;-84
2022/02/02 03:55:20;;;;;;;45.17;6.87;;;8.20;96.00;;;;;;5034473;28;20029;-84
2022/02/02 03:57:57;;;;;;;46.43;7.53;;;8.20;95.80;;;;;;5034338;28;20124;-82
2022/02/02 04:03:30;;;;;;;38.13;5.77;;;8.10;95.60;;;;;;5034579;28;20029;-80
2022/02/02 04:06:04;;;;;;;39.03;8.07;;;8.10;95.50;;;;;;5035699;28;20029;-86
2022/02/02 04:08:33;;;;;;;45.50;6.67;;;8.10;95.20;;;;;;5035268;28;20091;-82
2022/02/02 04:11:01;;;;;;;44.77;6.83;;;8.10;94.90;;;;;;5034419;28;20033;-83
2022/02/02 04:53:55;;;;;;;26.50;5.10;;;8.40;93.20;;;;;;5039755;28;20051;-84
2022/02/02 04:59:20;;;;;;;44.03;6.53;;;8.40;93.30;;;;;;5054473;28;20401;-84
2022/02/02 05:02:33;;;;;;;32.60;5.27;;;8.60;93.30;;;;;;5036392;28;20031;-81
2022/02/02 05:07:30;;;;;;;34.80;6.47;;;8.50;93.30;;;;;;5024132;28;20037;-82
2022/02/02 05:10:48;;;;;;;35.77;5.93;;;8.50;93.30;;;;;;5007680;28;20036;-82
2022/02/02 05:18:43;;;;;;;48.77;7.00;;;8.50;93.40;;;;;;5053820;28;20112;-83
2022/02/02 05:41:06;;;;;;;45.42;7.75;;;8.60;93.60;;;;;;5038756;28;20039;-84
2022/02/02 05:53:40;;;;;;;45.20;6.57;;;8.50;93.70;;;;;;5037143;28;20490;-85
2022/02/02 05:56:07;;;;;;;46.03;7.20;;;8.40;93.80;;;;;;5035935;28;20044;-85
2022/02/02 05:58:37;;;;;;;44.77;8.50;;;8.40;93.90;;;;;;5015599;28;20018;-82
2022/02/02 06:01:05;;;;;;;36.90;6.63;;;8.40;94.00;;;;;;5030573;28;20031;-88
2022/02/02 06:03:59;;;;;;;45.33;7.20;;;8.40;94.10;;;;;;5038914;28;20021;-81
2022/02/02 06:06:26;;;;;;;50.42;7.90;;;8.30;94.20;;;;;;5053263;28;20357;-82
2022/02/02 06:08:53;;;;;;;38.20;6.47;;;8.30;94.30;;;;;;5053184;28;20021;-81
2022/02/02 06:11:22;;;;;;;35.73;6.27;;;8.30;94.40;;;;;;5017693;28;20021;-82
2022/02/02 06:13:55;;;;;;;52.33;8.67;;;8.30;94.40;;;;;;5052614;28;20021;-84
2022/02/02 06:16:23;;;;;;;44.17;7.32;;;8.30;94.50;;;;;;5051310;28;20024;-80
2022/02/02 06:18:54;;;;;;;35.10;6.50;;;8.20;94.60;;;;;;5050379;28;20033;-88
2022/02/02 06:21:30;;;;;;;40.93;5.93;;;8.20;94.90;;;;;;5036330;28;20028;-81
2022/02/02 06:24:13;;;;;;;39.53;6.37;;;8.20;94.50;;;;;;5035319;28;20152;-82
2022/02/02 06:26:41;;;;;;;47.53;6.23;;;8.10;94.50;;;;;;5053298;28;20035;-86
2022/02/02 06:29:12;;;;;;;34.17;5.97;;;8.10;94.50;;;;;;5035358;28;20029;-86
2022/02/02 06:31:39;;;;;;;39.60;6.33;;;8.10;94.40;;;;;;5035468;28;20041;-82
2022/02/02 06:34:08;;;;;;;32.23;5.50;;;8.00;94.20;;;;;;5053061;28;20473;-89
2022/02/02 06:36:38;;;;;;;40.50;5.97;;;8.10;94.20;;;;;;5034812;28;20045;-86
2022/02/02 06:39:09;;;;;;;41.77;6.87;;;8.00;94.00;;;;;;5033552;28;20076;-86
2022/02/02 06:41:36;;;;;;;34.10;4.93;;;8.00;93.70;;;;;;5052884;28;20029;-87
2022/02/02 06:44:04;;;;;;;35.37;5.80;;;8.10;93.70;;;;;;5002403;28;20036;-84
2022/02/02 06:46:33;;;;;;;35.47;5.50;;;7.90;93.60;;;;;;5053056;28;20481;-84
2022/02/02 06:49:01;;;;;;;30.23;6.03;;;8.00;93.40;;;;;;5018916;28;20040;-81
2022/02/02 06:51:43;;;;;;;37.50;7.00;;;8.00;93.40;;;;;;5034789;28;20493;-83
2022/02/02 06:54:26;;;;;;;37.17;5.60;;;8.00;93.50;;;;;;5006062;28;20035;-82
2022/02/02 06:57:05;;;;;;;42.72;5.85;;;8.00;93.30;;;;;;5036604;28;20075;-85
2022/02/02 07:07:39;;;;;;;37.23;5.23;;;7.90;93.40;;;;;;5052841;28;20116;-87
2022/02/02 07:13:00;;;;;;;31.70;5.33;;;7.90;93.30;;;;;;5053415;28;20036;-83
2022/02/02 07:15:49;;;;;;;31.37;6.53;;;7.90;93.30;;;;;;5041480;28;20049;-84
2022/02/02 07:18:39;;;;;;;33.07;4.80;;;7.90;93.40;;;;;;5055267;28;20084;-80
2022/02/02 07:31:34;;;;;;;35.63;5.50;;;7.80;93.20;;;;;;5039261;28;20029;-78
2022/02/02 07:34:42;;;;;;;33.27;5.63;;;7.80;93.30;;;;;;5037600;28;20063;-76
2022/02/02 07:37:13;;;;;;;30.97;5.30;;;7.80;93.40;;;;;;5054716;28;20037;-77
2022/02/02 07:39:41;;;;;;;36.13;5.10;;;7.80;93.40;;;;;;5054781;28;20040;-77
2022/02/02 07:42:09;;;;;;;33.17;4.40;;;7.70;93.50;;;;;;5036995;28;20033;-77
2022/02/02 07:44:37;;;;;;;37.83;4.73;;;7.80;93.60;;;;;;5037467;28;20108;-76
2022/02/02 07:47:11;;;;;;;30.97;6.47;;;7.70;93.60;;;;;;5036664;28;20117;-76
2022/02/02 07:49:41;;;;;;;33.72;4.93;;;7.70;93.70;;;;;;5054726;28;20536;-76
2022/02/02 07:52:12;;;;;;;31.27;4.53;;;7.80;93.70;;;;;;5055551;28;20198;-75
2022/02/02 07:54:41;;;;;;;37.53;5.40;;;7.80;93.70;;;;;;5038344;28;20052;-77
2022/02/02 07:57:11;;;;;;;22.93;3.87;;;7.80;93.70;;;;;;5037986;28;20031;-76
2022/02/02 07:59:57;;;;;;;27.07;6.03;;;7.90;93.70;;;;;;5036920;28;20024;-76
2022/02/02 08:03:12;;;;;;;31.90;5.50;;;7.90;93.70;;;;;;5055036;28;20017;-76
2022/02/02 08:05:12;;;;;;;23.03;4.23;;;8.00;93.70;;;;;;5037545;28;20079;-76
2022/02/02 08:07:44;;;;;;;27.00;4.37;;;7.90;93.60;;;;;;5021172;28;20051;-76
2022/02/02 08:10:18;;;;;;;29.43;4.87;;;8.00;93.70;;;;;;5037329;28;20033;-77
2022/02/02 08:12:50;;;;;;;26.60;4.05;;;7.90;93.80;;;;;;5022023;28;20111;-76
2022/02/02 08:15:18;;;;;;;27.70;5.40;;;8.00;93.80;;;;;;5055005;28;20025;-76
2022/02/02 08:17:45;;;;;;;29.43;4.53;;;8.00;93.90;;;;;;5037406;28;20128;-76
2022/02/02 08:20:12;;;;;;;24.63;4.60;;;8.00;94.00;;;;;;5054702;28;20104;-77
2022/02/02 08:22:41;;;;;;;35.03;6.23;;;8.00;94.10;;;;;;5037112;28;20424;-76
2022/02/02 08:25:16;;;;;;;30.47;6.03;;;8.00;94.20;;;;;;5054540;28;20023;-76
2022/02/02 08:27:42;;;;;;;23.63;4.57;;;8.00;94.30;;;;;;5037114;28;20025;-76
2022/02/02 08:30:10;;;;;;;32.13;5.87;;;8.00;94.40;;;;;;5037195;28;20388;-75
2022/02/02 08:32:42;;;;;;;41.80;6.03;;;8.00;94.50;;;;;;5054353;28;20070;-76
2022/02/02 08:35:10;;;;;;;35.60;6.37;;;8.10;94.60;;;;;;5054338;28;20041;-76
2022/02/02 08:37:38;;;;;;;25.63;5.37;;;8.10;94.80;;;;;;5054792;28;20025;-76
2022/02/02 08:40:22;;;;;;;44.60;6.27;;;8.10;94.90;;;;;;5037511;28;20045;-76
2022/02/02 08:42:51;;;;;;;27.80;4.20;;;8.20;95.00;;;;;;5054061;28;20032;-76
2022/02/02 08:45:27;;;;;;;25.47;5.17;;;8.20;95.10;;;;;;5036248;28;20029;-76
2022/02/02 08:47:58;;;;;;;29.53;6.53;;;8.10;95.00;;;;;;5036488;28;20029;-76
2022/02/02 08:50:29;;;;;;;34.03;5.23;;;8.20;95.10;;;;;;5036129;28;20393;-76
2022/02/02 08:53:00;;;;;;;28.87;5.53;;;8.20;95.20;;;;;;5036649;28;20060;-75
2022/02/02 08:55:53;;;;;;;31.20;5.57;;;8.40;95.30;;;;;;5053849;28;20029;-75
2022/02/02 08:58:46;;;;;;;30.33;5.77;;;8.30;95.40;;;;;;5034016;28;20068;-76
2022/02/02 09:01:09;;;;;;;34.10;5.67;;;8.30;95.50;;;;;;5032087;28;20037;-77
2022/02/02 09:06:19;;;;;;;;;;;8.40;95.70;;;;;;5034995;28;20079;-76
2022/02/02 09:08:47;;;;;;;28.73;5.90;;;8.40;95.80;;;;;;5035293;28;19909;-75
2022/02/02 09:25:02;;;;;;;30.67;5.30;;;8.80;96.20;;;;;;5036376;28;20033;-76
2022/02/02 09:35:22;;;;;;;39.57;5.50;;;9.00;96.30;;;;;;5052988;28;20128;-76
2022/02/02 09:37:48;;;;;;;35.70;6.50;;;8.90;96.30;;;;;;5052207;28;20041;-76
2022/02/02 09:41:01;;;;;;;34.80;6.87;;;9.00;96.30;;;;;;5035739;28;20025;-75
2022/02/02 09:43:03;;;;;;;41.97;6.63;;;9.00;96.40;;;;;;5038466;28;20029;-76
2022/02/02 09:45:29;;;;;;;45.40;8.27;;;9.00;96.40;;;;;;5053143;28;20025;-76
2022/02/02 09:48:06;;;;;;;38.00;6.30;;;9.10;96.40;;;;;;5035767;28;20025;-76
2022/02/02 09:50:36;;;;;;;37.83;6.57;;;9.20;96.40;;;;;;5015605;28;20056;-76
2022/02/02 09:53:05;;;;;;;39.03;7.03;;;9.30;96.40;;;;;;5050554;28;20056;-76
2022/02/02 09:58:58;;;;;;;36.80;6.82;;;9.50;96.40;;;;;;5037458;28;20119;-75
2022/02/02 10:04:31;;;;;;;32.63;5.78;;;10.00;96.60;;;;;;5033289;28;20034;-76
2022/02/02 10:07:25;;;;;;;30.20;6.03;;;10.30;96.50;;;;;;5048744;28;20029;-75
2022/02/02 10:15:20;;;;;;;45.30;8.38;;;10.80;94.20;;;;;;5052892;28;20036;-77
2022/02/02 10:17:46;;;;;;;30.67;6.80;;;10.80;94.30;;;;;;5034916;28;20079;-76
2022/02/02 10:20:17;;;;;;;33.92;7.78;;;10.80;93.70;;;;;;5052759;28;20017;-76
2022/02/02 10:22:48;;;;;;;32.13;5.95;;;11.00;94.00;;;;;;5034312;28;20037;-76
2022/02/02 10:25:37;;;;;;;34.50;5.15;;;11.20;93.70;;;;;;5052755;28;20051;-76
2022/02/02 10:28:18;;;;;;;32.50;6.47;;;11.50;93.60;;;;;;5052392;28;20115;-78
2022/02/02 10:30:53;;;;;;;29.83;5.72;;;11.60;92.30;;;;;;5052138;28;20027;-76
2022/02/02 10:33:24;;;;;;;24.85;5.53;;;11.60;92.10;;;;;;5034245;28;20021;-76
2022/02/02 10:36:14;;;;;;;26.00;5.63;;;11.70;92.10;;;;;;5052034;28;20045;-76
2022/02/02 10:38:49;;;;;;;29.52;6.13;;;11.80;91.70;;;;;;5051966;28;20040;-76
2022/02/02 10:41:28;;;;;;;29.77;5.95;;;11.80;90.90;;;;;;5052061;28;20080;-76
2022/02/02 10:44:00;;;;;;;41.85;7.82;;;11.90;90.60;;;;;;5019762;28;20055;-76
2022/02/02 10:47:15;;;;;;;28.48;6.18;;;11.70;89.60;;;;;;5052467;28;20033;-76
2022/02/02 10:52:08;;;;;;;31.83;6.07;;;11.50;88.80;;;;;;5037428;28;20045;-75
2022/02/02 11:07:55;;;;;;;30.70;5.97;;;11.10;87.70;;;;;;5040959;28;20040;-76
2022/02/02 11:10:22;;;;;;;34.80;6.97;;;11.10;87.30;;;;;;5037589;28;20450;-78
2022/02/02 11:12:53;;;;;;;38.78;6.38;;;11.00;87.80;;;;;;5055352;28;20070;-76
2022/02/02 11:15:38;;;;;;;30.15;5.45;;;11.10;88.00;;;;;;5045090;28;20024;-77
2022/02/02 11:18:35;;;;;;;26.13;5.22;;;11.30;87.00;;;;;;5054079;28;20029;-77
2022/02/02 11:21:08;;;;;;;31.60;5.38;;;11.70;87.80;;;;;;5034464;28;20021;-79
2022/02/02 11:23:44;;;;;;;27.50;5.30;;;12.20;87.00;;;;;;5018562;28;20102;-75
2022/02/02 11:26:10;;;;;;;25.05;4.95;;;12.60;86.70;;;;;;5037253;28;20033;-80
2022/02/02 11:28:37;;;;;;;19.65;3.47;;;12.80;83.90;;;;;;5055026;28;20112;-75
2022/02/02 11:31:18;;;;;;;25.98;4.57;;;12.80;82.60;;;;;;5055329;28;20084;-75
2022/02/02 11:33:53;;;;;;;22.27;4.70;;;12.90;83.20;;;;;;5037549;28;20374;-76
2022/02/02 11:36:40;;;;;;;25.73;4.85;;;13.00;81.10;;;;;;5053660;28;20044;-75
2022/02/02 11:39:32;;;;;;;19.50;3.97;;;12.90;79.90;;;;;;5036525;28;20453;-81
2022/02/02 11:42:09;;;;;;;28.80;4.43;;;12.90;78.80;;;;;;5054582;28;20051;-78
2022/02/02 11:44:51;;;;;;;25.63;4.82;;;12.80;77.80;;;;;;5007698;28;20044;-77
2022/02/02 11:47:41;;;;;;;23.85;3.95;;;12.80;77.70;;;;;;5037209;28;20071;-76
2022/02/02 11:50:08;;;;;;;23.05;4.00;;;12.90;78.20;;;;;;5054755;28;20017;-75
2022/02/02 11:52:43;;;;;;;18.08;3.42;;;13.00;77.70;;;;;;5020746;28;20025;-75
2022/02/02 11:55:12;;;;;;;23.98;4.18;;;13.20;78.50;;;;;;5037500;28;20075;-76
2022/02/02 11:58:04;;;;;;;26.23;4.90;;;13.70;77.70;;;;;;5037115;28;20132;-76
2022/02/02 12:08:28;;;;;;;16.48;4.43;;;15.40;70.50;;;;;;5049934;28;20041;-82
2022/02/02 12:11:26;;;;;;;16.17;4.18;;;16.00;69.80;;;;;;5022972;28;20029;-80
2022/02/02 13:00:13;;;;;;;12.02;2.20;;;17.10;55.80;;;;;;5054407;28;20090;-75
2022/02/02 13:02:45;;;;;;;14.45;1.92;;;17.20;55.80;;;;;;5053284;28;20021;-77
2022/02/02 13:05:15;;;;;;;11.07;2.05;;;17.30;55.60;;;;;;5053455;28;20013;-79
2022/02/02 13:07:42;;;;;;;11.68;2.58;;;17.50;54.40;;;;;;5036197;28;20487;-79
2022/02/02 13:10:10;;;;;;;9.32;1.92;;;17.90;54.10;;;;;;5019629;28;20104;-76
2022/02/02 13:12:53;;;;;;;14.95;2.67;;;17.90;52.40;;;;;;5053006;28;20036;-79
2022/02/02 13:18:10;;;;;;;8.05;1.50;;;18.10;51.90;;;;;;5053419;28;20029;-75
2022/02/02 13:23:43;;;;;;;10.25;2.45;;;18.60;51.00;;;;;;5052941;28;20068;-75
2022/02/02 13:26:16;;;;;;;8.52;1.83;;;18.90;49.80;;;;;;5053556;28;20009;-75
2022/02/02 13:28:57;;;;;;;10.98;2.55;;;19.20;49.90;;;;;;5035667;28;20045;-78
2022/02/02 13:31:55;;;;;;;8.65;1.92;;;19.50;49.90;;;;;;5035230;28;20013;-75
2022/02/02 14:01:28;;;;;;;15.27;2.55;;;21.70;44.70;;;;;;5052938;28;20461;-74
2022/02/02 14:25:35;;;;;;;12.02;2.40;;;22.40;44.40;;;;;;5051627;28;20026;-74
2022/02/02 14:31:14;;;;;;;12.32;2.50;;;22.30;42.30;;;;;;5052094;28;20044;-76
2022/02/02 14:33:42;;;;;;;12.73;2.75;;;22.20;42.10;;;;;;5040534;28;20036;-73
2022/02/02 14:36:10;;;;;;;13.48;2.47;;;22.00;42.00;;;;;;5055928;28;20047;-74
2022/02/02 14:41:55;;;;;;;14.27;2.95;;;21.70;42.20;;;;;;5055932;28;20021;-76
2022/02/02 14:44:03;;;;;;;14.70;3.53;;;21.60;42.40;;;;;;5047861;28;20040;-76
2022/02/02 14:46:38;;;;;;;15.32;3.33;;;21.40;42.30;;;;;;5039025;28;20033;-76
2022/02/02 14:49:12;;;;;;;8.88;2.13;;;21.30;42.90;;;;;;5039196;28;20064;-76
2022/02/02 14:51:53;;;;;;;13.77;2.80;;;21.20;43.20;;;;;;5022554;28;20139;-76
2022/02/02 14:54:36;;;;;;;13.18;2.40;;;21.20;43.30;;;;;;5040476;28;20107;-73
2022/02/02 15:29:56;;;;;;;16.27;2.22;;;17.10;50.30;;;;;;5055781;28;20053;-74
2022/02/02 15:32:22;;;;;;;13.60;2.97;;;16.80;51.20;;;;;;5021058;28;20056;-74
2022/02/02 15:34:52;;;;;;;16.23;2.58;;;16.40;52.10;;;;;;5036952;28;20064;-74
2022/02/02 15:37:32;;;;;;;19.83;2.42;;;16.10;52.80;;;;;;5054764;28;20041;-74
2022/02/02 15:40:09;;;;;;;16.83;2.50;;;15.80;53.40;;;;;;5054567;28;20070;-76
2022/02/02 15:58:43;;;;;;;14.82;3.80;;;13.80;58.70;;;;;;5055255;28;20057;-73
2022/02/02 16:03:56;;;;;;;;;;;13.40;60.40;;;;;;5055606;28;20151;-74
2022/02/02 16:06:24;;;;;;;15.73;2.63;;;13.20;63.00;;;;;;5054938;28;19913;-74
2022/02/02 16:08:59;;;;;;;17.00;3.20;;;13.10;62.00;;;;;;5037565;28;20448;-75
2022/02/02 16:11:28;;;;;;;19.75;3.72;;;12.90;63.00;;;;;;5054905;28;20039;-76
2022/02/02 16:13:59;;;;;;;17.63;3.22;;;12.70;64.70;;;;;;5054411;28;20112;-76
2022/02/02 16:37:44;;;;;;;13.57;3.03;;;11.40;69.60;;;;;;5019652;28;20049;-74
2022/02/02 16:40:14;;;;;;;16.20;3.17;;;11.30;69.80;;;;;;5043977;28;20021;-74
2022/02/02 16:45:28;;;;;;;;;;;11.20;71.40;;;;;;5053949;28;20539;-75
2022/02/02 16:47:54;;;;;;;14.63;3.23;;;11.10;71.60;;;;;;5054001;28;20319;-74
2022/02/02 16:50:23;;;;;;;17.83;4.07;;;11.00;71.10;;;;;;5036625;28;20086;-75
2022/02/02 16:52:50;;;;;;;19.50;3.70;;;10.90;71.80;;;;;;5053711;28;20448;-75
2022/02/02 16:55:30;;;;;;;17.53;3.57;;;10.90;72.60;;;;;;5053852;28;20032;-75
2022/02/02 17:33:19;;;;;;;19.57;3.87;;;10.50;75.10;;;;;;5053721;28;20136;-76
2022/02/02 17:38:21;;;;;;;21.47;4.20;;;10.40;75.60;;;;;;5035319;28;20033;-75
2022/02/02 17:44:06;;;;;;;20.27;4.80;;;10.50;76.40;;;;;;5038215;28;20093;-75
2022/02/02 17:59:09;;;;;;;16.67;3.53;;;10.40;77.00;;;;;;5052165;28;20397;-74
2022/02/02 18:21:20;;;;;;;20.83;4.67;;;10.20;79.50;;;;;;5035439;28;20186;-75
2022/02/02 18:47:21;;;;;;;22.50;6.50;;;10.00;83.40;;;;;;5037551;28;20043;-74
2022/02/02 19:40:22;;;;;;;16.13;7.07;;;9.90;91.00;;;;;;5039768;28;20029;-75
2022/02/02 19:56:28;;;;;;;15.70;8.10;;;9.90;92.00;;;;;;5045597;28;20037;-74
2022/02/02 20:01:52;;;;;;;17.17;8.90;;;9.80;92.90;;;;;;5055975;28;20029;-74
2022/02/02 20:07:23;;;;;;;16.83;8.73;;;9.80;92.80;;;;;;5043710;28;20355;-74
2022/02/02 20:12:14;;;;;;;16.43;9.13;;;9.80;93.50;;;;;;5055340;28;20465;-75
2022/02/02 20:14:43;;;;;;;15.67;9.27;;;9.70;93.70;;;;;;5054820;28;20456;-74
2022/02/02 20:17:16;;;;;;;27.60;11.27;;;9.70;93.90;;;;;;5045534;28;20025;-74
2022/02/02 20:19:46;;;;;;;19.03;9.03;;;9.70;94.60;;;;;;5054509;28;20040;-74
2022/02/02 20:22:12;;;;;;;16.03;9.70;;;9.70;94.20;;;;;;5054483;28;20443;-74
2022/02/02 20:24:50;;;;;;;17.53;10.30;;;9.70;94.50;;;;;;5055023;28;20136;-75
2022/02/02 20:27:16;;;;;;;18.17;10.03;;;9.70;94.80;;;;;;5048607;28;20037;-75
2022/02/02 20:29:42;;;;;;;22.27;9.93;;;9.70;94.90;;;;;;5031225;28;20396;-74
2022/02/02 20:32:08;;;;;;;18.13;9.33;;;9.70;94.70;;;;;;5045884;28;20021;-75
2022/02/02 20:34:33;;;;;;;22.07;11.30;;;9.70;95.00;;;;;;5041020;28;20162;-74
2022/02/02 20:36:59;;;;;;;17.43;11.00;;;9.70;95.30;;;;;;5046852;28;20061;-75
2022/02/02 20:41:50;;;;;;;22.27;10.30;;;9.70;95.20;;;;;;5047749;28;20036;-75
2022/02/02 20:44:23;;;;;;;20.07;10.90;;;9.70;95.60;;;;;;5050280;28;20018;-75
2022/02/02 21:00:08;;;;;;;21.37;11.77;;;9.80;96.00;;;;;;5037362;28;20041;-75
2022/02/02 21:00:53;;;;;;;25.23;13.38;;;9.60;96.60;;;;;;5051699;28;20071;-75
2022/02/02 21:06:16;;;;;;;26.73;13.90;;;9.70;97.60;;;;;;5035578;28;20044;-75
2022/02/02 21:14:13;;;;;;;29.88;15.38;;;9.50;98.40;;;;;;5038718;28;20064;-75
2022/02/02 21:16:42;;;;;;;31.30;16.27;;;9.50;98.90;;;;;;5019367;28;20036;-75
2022/02/02 21:19:10;;;;;;;33.97;17.50;;;9.60;98.90;;;;;;5054024;28;20021;-75
2022/02/02 21:21:46;;;;;;;33.67;16.17;;;9.60;98.80;;;;;;5053682;28;20036;-75
2022/02/02 21:29:22;;;;;;;34.03;17.50;;;9.60;98.80;;;;;;5054021;28;20037;-75
2022/02/02 21:31:49;;;;;;;34.17;18.07;;;9.50;99.00;;;;;;5053146;28;20031;-75
2022/02/02 21:34:15;;;;;;;31.17;17.43;;;9.60;99.10;;;;;;5052801;28;20027;-75
2022/02/02 21:36:40;;;;;;;35.90;17.20;;;9.50;98.90;;;;;;5052207;28;20094;-76
2022/02/02 21:39:09;;;;;;;34.57;16.47;;;9.60;99.00;;;;;;5035420;28;20025;-75
2022/02/02 21:41:39;;;;;;;32.87;17.17;;;9.50;98.80;;;;;;5035302;28;20421;-75
2022/02/02 21:44:07;;;;;;;32.80;16.23;;;9.50;98.90;;;;;;5053153;28;20480;-76
2022/02/02 21:46:33;;;;;;;30.03;14.53;;;9.50;99.00;;;;;;5036053;28;20017;-75
2022/02/02 21:49:02;;;;;;;31.93;16.80;;;9.50;99.30;;;;;;5053292;28;20021;-75
2022/02/02 21:51:41;;;;;;;35.17;17.60;;;9.50;99.10;;;;;;5035112;28;20032;-75
2022/02/02 21:54:06;;;;;;;35.70;17.33;;;9.70;99.20;;;;;;5053396;28;20028;-75
2022/02/02 21:56:32;;;;;;;31.33;17.10;;;9.50;99.10;;;;;;5035416;28;20029;-76
2022/02/02 21:58:58;;;;;;;34.63;18.00;;;9.60;99.10;;;;;;5035580;28;20032;-76
2022/02/02 22:01:26;;;;;;;31.77;16.87;;;9.60;99.10;;;;;;5018529;28;20029;-75
2022/02/02 22:03:51;;;;;;;34.03;18.00;;;9.70;99.30;;;;;;5035643;28;20396;-75
2022/02/02 22:06:17;;;;;;;33.10;17.47;;;9.60;99.20;;;;;;5053129;28;20087;-75
2022/02/02 22:08:43;;;;;;;30.93;18.27;;;9.60;99.70;;;;;;5018871;28;20053;-75
2022/02/02 22:11:09;;;;;;;32.80;18.03;;;9.60;99.70;;;;;;5052959;28;20094;-75
2022/02/02 22:13:41;;;;;;;33.63;18.33;;;9.50;99.70;;;;;;5035645;28;20025;-75
2022/02/02 22:16:16;;;;;;;39.83;20.07;;;9.60;99.70;;;;;;5052691;28;20497;-75
2022/02/02 22:18:42;;;;;;;31.83;17.93;;;9.60;99.70;;;;;;5053139;28;20515;-75
2022/02/02 22:21:08;;;;;;;38.63;20.33;;;9.60;99.90;;;;;;5035251;28;20052;-75
2022/02/02 22:23:35;;;;;;;38.23;20.80;;;9.70;99.90;;;;;;5052784;28;20056;-75
2022/02/02 22:26:02;;;;;;;38.73;21.17;;;9.60;99.90;;;;;;5053600;28;20457;-76
2022/02/02 22:28:28;;;;;;;39.77;21.33;;;9.60;99.90;;;;;;5035333;28;20033;-75
2022/02/02 22:30:54;;;;;;;36.07;20.27;;;9.60;99.90;;;;;;5034990;28;20033;-76
2022/02/02 22:33:19;;;;;;;39.07;21.73;;;9.60;99.90;;;;;;5035456;28;20029;-76
2022/02/02 22:35:45;;;;;;;34.57;19.53;;;9.60;99.90;;;;;;5018806;28;20112;-76
2022/02/02 22:38:11;;;;;;;40.60;22.47;;;9.60;99.90;;;;;;5035264;28;20393;-75
2022/02/02 22:40:37;;;;;;;38.67;20.77;;;9.60;99.90;;;;;;5052894;28;20025;-76
2022/02/02 22:43:02;;;;;;;38.90;22.10;;;9.60;99.90;;;;;;5052842;28;20025;-75
2022/02/02 22:45:28;;;;;;;39.50;22.43;;;9.60;99.90;;;;;;5021962;28;20033;-75
2022/02/02 22:47:56;;;;;;;46.47;24.53;;;9.60;99.90;;;;;;5022917;28;20029;-75
2022/02/02 22:50:22;;;;;;;43.37;24.63;;;9.60;99.90;;;;;;5038704;28;20029;-76
2022/02/02 22:52:52;;;;;;;47.30;26.90;;;9.60;99.90;;;;;;5038830;28;20085;-75
2022/02/02 22:55:18;;;;;;;43.43;24.23;;;9.60;99.90;;;;;;5057104;28;20051;-76
2022/02/02 22:57:45;;;;;;;42.67;24.80;;;9.60;99.90;;;;;;5038761;28;20020;-75
2022/02/02 23:00:14;;;;;;;47.60;25.53;;;9.60;99.90;;;;;;5057026;28;20067;-76
2022/02/02 23:05:08;;;;;;;42.40;25.17;;;9.60;99.90;;;;;;5056774;28;20116;-75
2022/02/02 23:07:34;;;;;;;37.80;23.07;;;9.60;99.90;;;;;;5038679;28;20048;-75
2022/02/02 23:09:59;;;;;;;41.30;23.63;;;9.60;99.90;;;;;;5038442;28;20039;-76
2022/02/02 23:12:27;;;;;;;40.73;24.37;;;9.60;99.90;;;;;;5056502;28;20491;-75
2022/02/02 23:14:54;;;;;;;40.27;23.10;;;9.60;99.90;;;;;;5056389;28;20029;-75
2022/02/02 23:17:21;;;;;;;35.83;21.57;;;9.60;99.90;;;;;;5038619;28;20025;-75
2022/02/02 23:19:50;;;;;;;34.07;23.87;;;9.60;99.90;;;;;;5038288;28;20035;-75
2022/02/02 23:22:18;;;;;;;38.10;22.70;;;9.70;99.90;;;;;;5038125;28;20167;-75
2022/02/02 23:24:46;;;;;;;39.73;25.43;;;9.70;99.90;;;;;;5056104;28;20020;-75
2022/02/02 23:27:13;;;;;;;33.50;21.97;;;9.60;99.90;;;;;;5056211;28;20037;-75
2022/02/02 23:29:44;;;;;;;36.27;24.00;;;9.60;99.90;;;;;;5056113;28;20106;-75
2022/02/02 23:32:11;;;;;;;40.97;24.83;;;9.60;99.90;;;;;;5056317;28;20035;-75
2022/02/02 23:34:37;;;;;;;32.70;21.80;;;9.60;99.90;;;;;;5038036;28;20476;-75
2022/02/02 23:37:03;;;;;;;37.60;23.33;;;9.60;99.90;;;;;;5021680;28;20045;-75
2022/02/02 23:39:29;;;;;;;36.33;23.63;;;9.60;99.90;;;;;;5055891;28;20071;-75
2022/02/02 23:44:32;;;;;;;38.17;24.20;;;9.60;99.90;;;;;;5055817;28;20032;-75
2022/02/02 23:47:00;;;;;;;32.77;23.53;;;9.50;99.90;;;;;;5038139;28;20420;-75
2022/02/02 23:49:40;;;;;;;38.23;26.23;;;9.50;99.90;;;;;;5055177;28;20472;-76
2022/02/02 23:52:08;;;;;;;38.50;24.83;;;9.50;99.90;;;;;;5037997;28;20373;-76
2022/02/02 23:54:35;;;;;;;35.27;24.80;;;9.50;99.90;;;;;;5037620;28;20107;-75
2022/02/02 23:57:11;;;;;;;39.87;24.30;;;9.40;99.90;;;;;;5037278;28;20381;-75
